Latest Weather Observations for Smithton

IDT60801

Issued at 2:35 pm EDT Wednesday 22 October 2014 (issued every 30 minutes, with the page automatically refreshed every 10 minutes)

About weather observations | Map of weather stations | Latest weather observations for TAS | Other Formats
Station Details ID: 091292 Name: SMITHTON AERODROME Lat: -40.83 Lon: 145.08 Height: 7.5 m
Data from the previous 72 hours. | See also: Recent months at Smithton
Date/Time
EDT
Temp
°C
App
Temp
°C
Dew
Point
Rel
Hum
%
Delta-T
°C
Wind Press
QNH
hPa
Press
MSL
hPa
Rain
since 9 am
mm
Dir
 
Spd
km/h
Gust
km/h
Spd
kts
Gust
kts
22/02:30pm 17.4 12.2 11.7 69 3.1 ENE 30 35 16 19 1016.8 - 0.0
22/02:00pm 17.6 12.4 11.6 68 3.3 ENE 30 39 16 21 1017.1 - 0.0
22/01:36pm 17.8 12.2 11.6 67 3.4 ENE 32 50 17 27 1017.3 - 0.0
22/01:30pm 18.0 12.0 12.2 69 3.2 ENE 35 44 19 24 1017.4 - 0.0
22/01:00pm 17.2 11.3 11.2 68 3.2 ENE 33 41 18 22 1017.6 - 0.0
22/12:30pm 16.3 10.5 11.5 73 2.6 ENE 33 41 18 22 1018.0 - 0.0
22/12:00pm 17.1 11.6 11.8 71 2.9 ENE 32 43 17 23 1018.6 1018.6 0.0
22/11:30am 17.3 11.2 11.6 69 3.1 E 35 46 19 25 1019.2 - 0.0
22/11:00am 17.4 11.4 12.1 71 2.9 E 35 46 19 25 1019.8 - 0.0
22/10:30am 16.8 11.0 10.9 68 3.2 E 32 44 17 24 1020.2 - 0.0
22/10:00am 16.3 9.6 11.0 71 2.8 ENE 37 48 20 26 1020.3 - 0.0
22/09:45am 16.4 11.0 10.9 70 2.9 E 30 50 16 27 1020.3 - 0.0
22/09:30am 16.1 9.8 11.1 72 2.7 ENE 35 50 19 27 1020.2 - 0.0
22/09:00am 15.7 9.7 10.9 73 2.5 E 33 48 18 26 1020.6 1020.6 0.0
22/08:51am 15.6 10.1 10.6 72 2.6 ENE 30 48 16 26 1020.8 - 0.0
22/08:30am 15.4 10.7 10.8 74 2.4 E 26 35 14 19 1021.2 - 0.0
22/08:00am 14.5 9.3 10.1 75 2.3 ENE 28 41 15 22 1021.1 - 0.0
22/07:30am 13.7 8.4 9.9 78 2.0 E 28 39 15 21 1020.9 - 0.0
22/07:00am 13.0 8.1 9.8 81 1.6 E 26 35 14 19 1021.3 - 0.0
22/06:30am 12.6 7.2 9.6 82 1.5 E 28 41 15 22 1021.5 - 0.0
22/06:00am 12.5 7.5 9.7 83 1.4 E 26 39 14 21 1021.5 1021.5 0.0
22/05:30am 12.4 7.4 9.6 83 1.4 E 26 35 14 19 1021.3 - 0.0
22/05:00am 12.4 6.6 9.6 83 1.4 E 30 41 16 22 1021.3 - 0.0
22/04:48am 12.5 6.8 9.7 83 1.4 E 30 48 16 26 1021.5 - 0.0
22/04:30am 12.5 6.8 9.7 83 1.4 E 30 39 16 21 1021.8 - 0.0
22/04:16am 12.7 6.6 9.9 83 1.4 E 32 50 17 27 1022.0 - 0.0
22/04:00am 12.5 6.4 9.7 83 1.4 E 32 48 17 26 1021.9 - 0.0
22/03:30am 12.7 6.5 10.1 84 1.3 E 33 43 18 23 1022.7 - 0.0
22/03:00am 13.2 7.1 9.8 80 1.7 ENE 32 43 17 23 1023.1 1023.1 0.0
22/02:30am 13.1 6.7 9.4 78 1.9 ENE 33 50 18 27 1023.6 - 0.0
22/02:00am 13.0 5.8 9.3 78 1.9 E 37 50 20 27 1023.9 - 0.0
22/01:52am 13.0 6.6 9.3 78 1.9 E 33 52 18 28 1023.9 - 0.0
22/01:30am 12.8 6.0 9.3 79 1.8 E 35 46 19 25 1024.4 - 0.0
22/01:25am 12.9 6.1 9.2 78 1.9 E 35 54 19 29 1024.6 - 0.0
22/01:00am 12.8 6.4 9.3 79 1.8 E 33 46 18 25 1024.8 - 0.0
22/12:30am 12.8 6.4 9.4 80 1.7 E 33 48 18 26 1025.6 - 0.0
22/12:00am 12.7 6.7 10.2 85 1.3 E 32 43 17 23 1025.8 1025.8 0.0
 
Date/Time
EDT
Temp
°C
App
Temp
°C
Dew
Point
Rel
Hum
%
Delta-T
°C
Wind Press
QNH
hPa
Press
MSL
hPa
Rain
since 9 am
mm
Dir
 
Spd
km/h
Gust
km/h
Spd
kts
Gust
kts
21/11:30pm 12.8 6.7 10.3 85 1.3 E 33 52 18 28 1026.1 - 0.0
21/11:22pm 12.9 7.0 10.3 84 1.3 ENE 32 52 17 28 1026.1 - 0.0
21/11:00pm 12.6 7.0 10.1 85 1.3 ENE 30 41 16 22 1026.6 - 0.0
21/10:30pm 12.5 6.9 10.0 85 1.3 ENE 30 44 16 24 1026.7 - 0.0
21/10:00pm 12.4 7.1 10.0 85 1.2 ENE 28 39 15 21 1027.0 - 0.0
21/09:30pm 12.6 7.0 10.1 85 1.3 ENE 30 39 16 21 1027.2 - 0.0
21/09:00pm 12.7 6.7 10.1 84 1.3 E 32 46 17 25 1026.8 1026.8 0.0
21/08:30pm 12.5 7.2 10.0 85 1.3 ENE 28 44 15 24 1027.0 - 0.0
21/08:00pm 12.6 6.5 9.8 83 1.4 E 32 46 17 25 1027.2 - 0.0
21/07:30pm 12.9 7.5 9.5 80 1.7 ENE 28 39 15 21 1027.6 - 0.0
21/07:00pm 13.6 7.4 9.5 76 2.1 E 32 44 17 24 1027.3 - 0.0
21/06:49pm 13.8 7.6 9.3 74 2.3 E 32 50 17 27 1027.4 - 0.0
21/06:30pm 14.2 7.0 9.0 71 2.6 E 37 50 20 27 1027.1 - 0.0
21/06:00pm 14.8 7.9 8.7 67 3.1 E 35 54 19 29 1027.4 1027.4 0.0
21/05:30pm 15.0 6.9 8.5 65 3.3 E 41 59 22 32 1027.6 - 0.0
21/05:01pm 15.5 7.3 8.3 62 3.6 E 41 59 22 32 1028.0 - 0.0
21/05:00pm 15.5 7.0 8.7 64 3.5 E 43 59 23 32 1028.0 - 0.0
21/04:30pm 15.9 7.8 8.6 62 3.7 ENE 41 59 22 32 1028.2 - 0.0
21/04:09pm 15.9 7.7 8.4 61 3.8 E 41 59 22 32 1028.0 - 0.0
21/04:00pm 15.9 7.2 8.6 62 3.7 E 44 59 24 32 1028.0 - 0.0
21/03:38pm 16.7 8.7 9.1 61 3.9 E 41 59 22 32 1028.3 - 0.0
21/03:30pm 16.1 7.0 8.3 60 4.0 E 46 59 25 32 1028.4 - 0.0
21/03:00pm 16.6 8.5 8.8 60 4.0 E 41 56 22 30 1028.7 1028.7 0.0
21/02:39pm 16.4 8.2 8.4 59 4.1 E 41 61 22 33 1028.8 - 0.0
21/02:30pm 17.0 8.9 9.9 63 3.7 E 43 57 23 31 1029.1 - 0.0
21/02:14pm 16.4 7.5 9.1 62 3.8 E 46 65 25 35 1029.3 - 0.0
21/02:00pm 16.1 7.5 8.1 59 4.0 E 43 59 23 32 1029.5 - 0.0
21/01:35pm 15.8 6.9 7.6 58 4.1 E 44 63 24 34 1029.9 - 0.0
21/01:30pm 16.1 7.3 8.1 59 4.0 E 44 56 24 30 1030.1 - 0.0
21/01:14pm 15.7 7.0 7.7 59 4.0 E 43 61 23 33 1030.2 - 0.0
21/01:00pm 15.6 7.0 8.1 61 3.8 E 43 59 23 32 1030.3 - 0.0
21/12:30pm 15.9 8.0 7.7 58 4.1 E 39 57 21 31 1030.7 - 0.0
21/12:00pm 15.7 8.2 8.0 60 3.8 E 37 56 20 30 1031.1 1031.1 0.0
21/11:47am 15.5 7.7 8.3 62 3.6 E 39 57 21 31 1031.1 - 0.0
21/11:30am 15.0 7.1 7.8 62 3.6 E 39 52 21 28 1031.2 - 0.0
21/11:07am 14.9 6.2 7.9 63 3.5 E 43 63 23 34 1031.2 - 0.0
21/11:00am 15.0 6.3 8.3 64 3.4 E 44 57 24 31 1031.1 - 0.0
21/10:30am 14.8 6.7 8.7 67 3.1 E 41 56 22 30 1031.5 - 0.0
21/10:16am 15.2 8.4 9.1 67 3.1 E 35 54 19 29 1031.6 - 0.0
21/10:00am 14.8 7.4 8.5 66 3.2 E 37 52 20 28 1031.3 - 0.0
21/09:37am 14.4 7.1 7.2 62 3.5 ENE 35 59 19 32 1031.7 - 0.0
21/09:30am 14.4 7.6 7.9 65 3.2 ENE 33 50 18 27 1031.6 - 0.0
21/09:12am 13.7 6.1 7.5 66 3.0 E 37 57 20 31 1031.7 - 0.0
21/09:00am 13.8 6.7 8.2 69 2.8 E 35 48 19 26 1031.7 1031.7 0.0
21/08:30am 13.5 5.7 6.6 63 3.3 ENE 37 50 20 27 1031.5 - 0.0
21/08:01am 13.1 6.6 6.7 65 3.1 ENE 30 48 16 26 1031.7 - 0.0
21/08:00am 13.0 6.1 6.6 65 3.1 ENE 32 48 17 26 1031.8 - 0.0
21/07:30am 12.2 6.0 6.3 67 2.8 E 28 43 15 23 1031.6 - 0.0
21/07:00am 11.6 4.4 6.1 69 2.6 ENE 33 44 18 24 1031.4 - 0.0
21/06:30am 11.4 4.2 5.7 68 2.6 ENE 33 46 18 25 1031.2 - 0.0
21/06:19am 11.7 4.6 5.6 66 2.8 ENE 32 52 17 28 1031.2 - 0.0
21/06:00am 11.8 5.6 6.3 69 2.6 ENE 28 41 15 22 1031.0 1031.0 0.0
21/05:30am 11.8 4.5 5.4 65 3.0 ENE 33 48 18 26 1030.9 - 0.0
21/05:00am 11.5 4.4 5.6 67 2.7 ENE 32 46 17 25 1031.0 - 0.0
21/04:56am 11.7 5.4 5.6 66 2.8 ENE 28 46 15 25 1030.9 - 0.0
21/04:30am 11.6 4.4 5.9 68 2.7 ENE 33 46 18 25 1030.9 - 0.0
21/04:00am 11.0 3.9 5.3 68 2.6 ENE 32 44 17 24 1030.7 - 0.0
21/03:30am 10.8 3.7 5.3 69 2.5 ENE 32 43 17 23 1031.0 - 0.0
21/03:00am 11.1 3.7 5.2 67 2.7 ENE 33 44 18 24 1031.3 1031.3 0.0
21/02:30am 11.3 4.6 5.8 69 2.6 ENE 30 43 16 23 1031.7 - 0.0
21/02:00am 11.3 4.7 6.0 70 2.5 ENE 30 43 16 23 1032.0 - 0.0
21/01:30am 11.5 5.0 6.4 71 2.4 ENE 30 39 16 21 1032.6 - 0.0
21/01:00am 11.3 5.8 7.6 78 1.8 ENE 26 33 14 18 1032.9 - 0.0
21/12:30am 8.6 5.3 6.4 86 1.0 E 13 20 7 11 1033.1 - 0.0
21/12:00am 7.2 3.2 4.7 84 1.1 ESE 15 17 8 9 1033.1 1033.1 0.0
 
Date/Time
EDT
Temp
°C
App
Temp
°C
Dew
Point
Rel
Hum
%
Delta-T
°C
Wind Press
QNH
hPa
Press
MSL
hPa
Rain
since 9 am
mm
Dir
 
Spd
km/h
Gust
km/h
Spd
kts
Gust
kts
20/11:30pm 6.6 2.8 3.9 83 1.2 ESE 13 15 7 8 1033.3 - 0.0
20/11:00pm 6.4 2.5 3.6 82 1.2 ESE 13 15 7 8 1033.4 - 0.0
20/10:30pm 6.1 2.1 3.1 81 1.2 ESE 13 15 7 8 1033.6 - 0.0
20/10:00pm 6.4 2.7 2.5 76 1.6 ESE 11 13 6 7 1033.9 - 0.0
20/09:30pm 7.0 4.1 2.7 74 1.8 E 7 11 4 6 1034.0 - 0.0
20/09:00pm 7.4 4.1 2.7 72 1.9 E 9 11 5 6 1033.7 1033.7 0.0
20/08:30pm 7.0 3.7 2.5 73 1.9 E 9 11 5 6 1033.3 - 0.0
20/08:00pm 7.7 4.1 3.0 72 2.0 E 11 15 6 8 1033.0 - 0.0
20/07:30pm 9.5 5.6 3.3 65 2.7 E 13 13 7 7 1033.0 - 0.0
20/07:00pm 11.2 7.2 3.0 57 3.6 NE 13 17 7 9 1032.9 - 0.0
20/06:30pm 11.9 8.0 3.2 55 3.8 NNE 13 17 7 9 1033.0 - 0.0
20/06:00pm 12.2 7.5 3.2 54 3.9 NE 17 20 9 11 1033.2 1033.2 0.0
20/05:30pm 12.6 7.8 2.5 50 4.4 NE 17 22 9 12 1033.2 - 0.0
20/05:00pm 13.1 7.8 2.9 50 4.5 NE 20 26 11 14 1033.3 - 0.0
20/04:30pm 13.4 8.0 2.3 47 4.9 NE 20 26 11 14 1033.3 - 0.0
20/04:00pm 13.4 8.1 2.9 49 4.7 NE 20 28 11 15 1033.3 - 0.0
20/03:30pm 13.3 7.7 3.7 52 4.3 NE 22 33 12 18 1033.4 - 0.0
20/03:00pm 13.4 7.5 4.0 53 4.2 NNE 24 33 13 18 1033.5 1033.5 0.0
20/02:30pm 13.3 7.6 2.8 49 4.6 NE 22 35 12 19 1033.8 - 0.0
20/02:00pm 13.5 7.1 3.0 49 4.7 NE 26 39 14 21 1034.0 - 0.0
20/01:30pm 13.9 7.6 -1.3 35 6.2 ENE 22 32 12 17 1034.2 - 0.0
20/01:00pm 13.2 7.5 2.7 49 4.6 NNE 22 37 12 20 1034.1 - 0.0
20/12:30pm 12.8 7.7 3.2 52 4.3 NE 19 30 10 16 1034.5 - 0.0
20/12:00pm 13.0 7.9 2.8 50 4.4 ENE 19 26 10 14 1034.7 1034.7 0.0
20/11:30am 13.1 8.7 4.5 56 3.9 ENE 17 26 9 14 1034.7 - 0.0
20/11:00am 12.7 8.0 3.4 53 4.1 NE 17 28 9 15 1034.7 - 0.0
20/10:30am 12.0 7.7 3.5 56 3.8 E 15 20 8 11 1034.5 - 0.0
20/10:00am 11.4 7.0 2.7 55 3.8 ESE 15 20 8 11 1034.4 - 0.0
20/09:30am 10.4 5.5 1.8 55 3.6 ESE 17 20 9 11 1034.3 - 0.0
20/09:00am 9.0 5.9 5.6 79 1.5 SSE 11 15 6 8 1034.0 1034.0 1.0
20/08:30am 6.5 2.5 4.7 88 0.8 S 15 19 8 10 1033.8 - 1.0
20/08:00am 4.5 0.4 4.2 98 0.1 S 15 19 8 10 1033.6 - 1.0
20/07:30am 2.4 -2.1 2.3 99 0.0 S 15 17 8 9 1033.2 - 0.8
20/07:00am 1.0 -3.7 0.9 99 0.0 S 15 19 8 10 1032.7 - 0.6
20/06:30am 0.4 -3.2 0.3 99 0.0 SE 9 11 5 6 1032.4 - 0.6
20/06:00am 0.3 -3.7 0.2 99 0.0 SSW 11 15 6 8 1031.9 1031.9 0.6
20/05:30am 0.8 -2.2 0.7 99 0.0 S 6 7 3 4 1031.4 - 0.6
20/05:00am 1.7 -1.7 1.6 99 0.0 S 9 13 5 7 1030.8 - 0.6
20/04:30am 0.8 -3.5 0.7 99 0.0 S 13 17 7 9 1031.0 - 0.6
20/04:00am 0.9 -2.7 0.8 99 0.0 SSW 9 11 5 6 1030.4 - 0.6
20/03:30am 1.4 -2.5 1.3 99 0.0 SSW 11 13 6 7 1030.4 - 0.6
20/03:00am 1.5 -1.6 1.4 99 0.0 S 7 9 4 5 1030.4 1030.4 0.6
20/02:30am 2.2 -0.6 2.1 99 0.0 SW 6 7 3 4 1030.3 - 0.6
20/02:00am 3.0 1.5 2.9 99 0.0 CALM 0 0 0 0 1030.5 - 0.6
20/01:30am 3.4 0.8 3.0 97 0.2 SW 6 7 3 4 1030.3 - 0.6
20/01:00am 4.3 2.9 3.7 96 0.2 CALM 0 0 0 0 1030.1 - 0.6
20/12:30am 4.2 1.4 3.3 94 0.4 SW 7 11 4 6 1029.6 - 0.6
20/12:00am 5.2 2.2 4.0 92 0.5 SW 9 11 5 6 1028.9 1028.9 0.6
 
Date/Time
EDT
Temp
°C
App
Temp
°C
Dew
Point
Rel
Hum
%
Delta-T
°C
Wind Press
QNH
hPa
Press
MSL
hPa
Rain
since 9 am
mm
Dir
 
Spd
km/h
Gust
km/h
Spd
kts
Gust
kts
19/11:30pm 5.8 2.5 4.3 90 0.6 SW 11 13 6 7 1028.5 - 0.6
19/11:00pm 6.7 2.7 4.7 87 0.9 SSW 15 22 8 12 1028.1 - 0.6
19/10:30pm 7.5 2.8 5.3 86 1.0 SW 19 30 10 16 1027.6 - 0.6
19/10:00pm 7.2 3.4 5.8 91 0.6 SW 15 22 8 12 1027.2 - 0.6
19/09:30pm 7.3 3.2 6.1 92 0.5 SSW 17 20 9 11 1026.8 - 0.6
19/09:00pm 7.8 3.2 6.4 91 0.6 SSW 20 28 11 15 1026.0 1026.0 0.6
19/08:30pm 8.3 3.8 6.9 91 0.6 SW 20 28 11 15 1024.9 - 0.6
19/08:00pm 8.8 2.9 7.4 91 0.7 SW 28 39 15 21 1024.3 - 0.6
19/07:30pm 9.4 3.3 8.2 92 0.6 SW 30 44 16 24 1023.8 - 0.6
19/07:00pm 9.6 4.8 8.7 94 0.4 SW 24 30 13 16 1023.3 - 0.6
19/06:30pm 9.4 5.3 8.6 95 0.4 SW 20 28 11 15 1022.5 - 0.6
19/06:00pm 9.3 4.7 8.2 93 0.5 SSW 22 32 12 17 1021.9 1021.9 0.6
19/05:30pm 9.6 2.4 7.5 87 1.0 SSW 35 48 19 26 1021.7 - 0.2
19/05:00pm 10.8 3.6 7.7 81 1.5 SSW 35 56 19 30 1021.0 - 0.0
19/04:31pm 11.4 3.3 8.6 83 1.4 SW 41 59 22 32 1020.6 - 0.0
19/04:30pm 11.5 3.5 9.1 85 1.2 SW 41 54 22 29 1020.4 - 0.0
19/04:13pm 13.1 5.8 8.6 74 2.2 SW 37 57 20 31 1019.0 - 0.0
19/04:00pm 15.1 8.2 8.8 66 3.2 SW 35 44 19 24 1019.2 - 0.0
19/03:50pm 15.5 9.0 8.3 62 3.6 SW 32 50 17 27 1019.2 - 0.0
19/03:30pm 15.6 7.9 8.6 63 3.6 SW 39 50 21 27 1019.1 - 0.0
19/03:00pm 17.4 12.0 10.8 65 3.5 SW 30 35 16 19 1017.8 1017.8 0.0

Other Formats:

Comma delimited format used in spreadsheet applications
http://www.bom.gov.au/fwo/IDT60801/IDT60801.94953.axf

JavaScript Object Notation format (JSON) in row-major order
http://www.bom.gov.au/fwo/IDT60801/IDT60801.94953.json